createdAt,value
2023-04-04T00:00:45.284Z,67.54
2023-04-04T00:03:12.410Z,67.03
2023-04-04T00:05:39.354Z,67.50
2023-04-04T00:08:06.394Z,67.58
2023-04-04T00:10:33.372Z,67.84
2023-04-04T00:13:00.646Z,67.12
2023-04-04T00:15:27.779Z,67.42
2023-04-04T00:17:54.777Z,66.75
2023-04-04T00:20:21.791Z,65.72
2023-04-04T00:22:48.813Z,65.29
2023-04-04T00:25:15.788Z,66.76
2023-04-04T00:27:42.867Z,67.14
2023-04-04T00:30:10.201Z,67.76
2023-04-04T00:32:37.198Z,68.50
2023-04-04T00:35:04.334Z,68.33
2023-04-04T00:37:31.353Z,69.07
2023-04-04T00:39:58.402Z,67.43
2023-04-04T00:42:25.425Z,66.54
2023-04-04T00:44:52.657Z,66.73
2023-04-04T00:47:22.663Z,66.78
2023-04-04T00:49:49.569Z,67.42
2023-04-04T00:52:16.715Z,66.89
2023-04-04T00:54:43.857Z,66.59
2023-04-04T00:57:10.781Z,67.56
2023-04-04T00:59:38.086Z,68.45
2023-04-04T01:02:08.898Z,68.63
2023-04-04T01:04:36.493Z,68.45
2023-04-04T01:07:04.768Z,67.98
2023-04-04T01:09:32.284Z,67.89
2023-04-04T01:11:59.470Z,67.66
2023-04-04T01:14:26.528Z,67.13
2023-04-04T01:16:53.567Z,67.20
2023-04-04T01:19:25.086Z,67.21
2023-04-04T01:21:53.278Z,67.02
2023-04-04T01:24:22.882Z,67.52
2023-04-04T01:26:51.058Z,67.35
2023-04-04T01:29:18.010Z,67.36
2023-04-04T01:31:50.136Z,67.85
2023-04-04T01:34:21.389Z,68.40
2023-04-04T01:36:53.987Z,68.45
2023-04-04T01:39:25.255Z,69.85
2023-04-04T01:41:52.466Z,69.74
2023-04-04T01:44:19.753Z,68.75
2023-04-04T01:46:46.708Z,68.73
2023-04-04T01:49:13.696Z,69.31
2023-04-04T01:51:41.180Z,68.76
2023-04-04T01:54:08.318Z,69.32
2023-04-04T01:56:35.452Z,69.96
2023-04-04T01:59:02.449Z,69.32
2023-04-04T02:01:29.591Z,70.21
2023-04-04T02:03:56.529Z,69.73
2023-04-04T02:06:23.829Z,69.77
2023-04-04T02:08:50.863Z,69.72
2023-04-04T02:11:17.911Z,69.55
2023-04-04T02:13:44.997Z,69.77
2023-04-04T02:16:12.087Z,70.15
2023-04-04T02:18:39.177Z,69.80
2023-04-04T02:21:06.164Z,70.99
2023-04-04T02:23:33.086Z,70.36
2023-04-04T02:26:00.050Z,70.85
2023-04-04T02:28:29.216Z,70.76
2023-04-04T02:30:56.273Z,71.37
2023-04-04T02:33:23.387Z,71.41
2023-04-04T02:35:50.290Z,71.91
2023-04-04T02:38:17.321Z,71.66
2023-04-04T02:40:45.954Z,72.24
2023-04-04T02:43:12.887Z,71.40
2023-04-04T02:45:39.827Z,71.57
2023-04-04T02:48:07.998Z,71.04
2023-04-04T02:50:35.130Z,71.61
2023-04-04T02:53:02.616Z,71.58
2023-04-04T02:55:29.595Z,71.93
2023-04-04T02:57:56.739Z,71.99
2023-04-04T03:00:23.604Z,72.20
2023-04-04T03:02:57.330Z,72.71
2023-04-04T03:05:25.529Z,72.02
2023-04-04T03:07:54.722Z,72.23
2023-04-04T03:10:21.625Z,71.79
2023-04-04T03:12:48.536Z,72.86
2023-04-04T03:15:17.679Z,71.92
2023-04-04T03:17:45.307Z,72.42
2023-04-04T03:20:13.072Z,72.11
2023-04-04T03:22:39.949Z,72.05
2023-04-04T03:25:07.111Z,71.81
2023-04-04T03:27:34.934Z,72.30
2023-04-04T03:30:02.237Z,73.30
2023-04-04T03:32:29.165Z,73.04
2023-04-04T03:34:56.148Z,74.05
2023-04-04T03:37:23.372Z,74.12
2023-04-04T03:39:50.520Z,73.46
2023-04-04T03:42:17.462Z,72.99
2023-04-04T03:44:44.322Z,73.69
2023-04-04T03:47:11.210Z,73.52
2023-04-04T03:49:38.096Z,74.74
2023-04-04T03:52:05.211Z,72.42
2023-04-04T03:54:32.179Z,72.04
2023-04-04T03:56:59.227Z,72.49
2023-04-04T03:59:26.234Z,72.62
2023-04-04T04:01:53.222Z,73.85
2023-04-04T04:04:20.344Z,74.65
2023-04-04T04:06:49.635Z,74.16
2023-04-04T04:09:16.469Z,73.47
2023-04-04T04:11:43.322Z,73.64
2023-04-04T04:14:10.181Z,72.98
2023-04-04T04:16:39.719Z,72.95
2023-04-04T04:19:06.561Z,72.87
2023-04-04T04:21:33.443Z,73.29
2023-04-04T04:24:00.283Z,73.82
2023-04-04T04:26:27.714Z,74.95
2023-04-04T04:28:54.695Z,73.68
2023-04-04T04:31:22.033Z,72.96
2023-04-04T04:33:49.084Z,73.43
2023-04-04T04:36:16.065Z,73.21
2023-04-04T04:38:43.218Z,73.97
2023-04-04T04:41:10.110Z,73.92
2023-04-04T04:43:37.604Z,73.49
2023-04-04T04:46:04.475Z,73.82
2023-04-04T04:48:31.474Z,74.13
2023-04-04T04:50:58.308Z,74.84
2023-04-04T04:53:25.147Z,75.42
2023-04-04T04:55:52.770Z,75.40
2023-04-04T04:58:22.884Z,75.60
2023-04-04T05:00:49.861Z,75.57
2023-04-04T05:03:16.957Z,75.04
2023-04-04T05:05:44.428Z,74.40
2023-04-04T05:08:11.287Z,75.48
2023-04-04T05:10:38.351Z,75.46
2023-04-04T05:13:05.400Z,75.73
2023-04-04T05:15:32.662Z,76.07
2023-04-04T05:17:59.639Z,75.74
2023-04-04T05:20:26.727Z,74.75
2023-04-04T05:22:53.605Z,74.56
2023-04-04T05:25:20.480Z,74.28
2023-04-04T05:27:48.676Z,74.84
2023-04-04T05:30:16.004Z,74.70
2023-04-04T05:32:44.861Z,74.79
2023-04-04T05:35:11.808Z,74.91
2023-04-04T05:37:40.647Z,75.40
2023-04-04T05:40:08.106Z,75.78
2023-04-04T05:42:35.004Z,76.18
2023-04-04T05:45:01.984Z,76.50
2023-04-04T05:47:28.836Z,75.90
2023-04-04T05:49:55.682Z,75.43
2023-04-04T05:52:22.812Z,75.73
2023-04-04T05:54:49.769Z,76.35
2023-04-04T05:57:19.752Z,75.76
2023-04-04T05:59:46.978Z,76.06
2023-04-04T06:02:13.936Z,75.57
2023-04-04T06:04:41.386Z,75.03
2023-04-04T06:07:08.197Z,74.67
2023-04-04T06:09:36.553Z,74.76
2023-04-04T06:12:05.041Z,75.39
2023-04-04T06:14:31.986Z,74.52
2023-04-04T06:16:59.141Z,74.83
2023-04-04T06:19:26.362Z,74.46
2023-04-04T06:21:53.205Z,74.93
2023-04-04T06:24:20.258Z,74.63
2023-04-04T06:26:51.644Z,74.73
2023-04-04T06:29:20.774Z,73.98
2023-04-04T06:31:47.743Z,74.11
2023-04-04T06:34:15.153Z,74.00
2023-04-04T06:36:42.006Z,74.08
2023-04-04T06:39:08.919Z,73.14
2023-04-04T06:41:35.761Z,73.56
2023-04-04T06:44:02.729Z,73.89
2023-04-04T06:46:31.740Z,74.31
2023-04-04T06:48:58.657Z,73.83
2023-04-04T06:51:25.935Z,75.00
2023-04-04T06:53:52.939Z,73.59
2023-04-04T06:56:19.890Z,73.40
2023-04-04T06:58:46.896Z,73.92
2023-04-04T07:01:14.016Z,73.69
2023-04-04T07:03:40.930Z,71.46
2023-04-04T07:06:07.759Z,69.27
2023-04-04T07:08:36.948Z,65.55
2023-04-04T07:11:04.450Z,63.92
2023-04-04T07:13:35.634Z,64.45
2023-04-04T07:16:03.170Z,65.35
2023-04-04T07:18:30.153Z,65.46
2023-04-04T07:20:57.876Z,61.67
2023-04-04T07:23:24.847Z,58.71
2023-04-04T07:25:52.433Z,58.54
2023-04-04T07:28:19.534Z,59.07
2023-04-04T07:30:46.481Z,59.24
2023-04-04T07:33:13.578Z,60.42
2023-04-04T07:35:40.613Z,59.61
2023-04-04T07:38:07.780Z,60.26
2023-04-04T07:40:34.779Z,60.39
2023-04-04T07:43:01.803Z,60.32
2023-04-04T07:45:28.945Z,59.78
2023-04-04T07:47:56.392Z,59.91
2023-04-04T07:50:23.386Z,58.88
2023-04-04T07:52:52.637Z,56.54
2023-04-04T07:55:21.582Z,53.42
2023-04-04T07:57:48.491Z,51.14
2023-04-04T08:00:15.784Z,51.02
2023-04-04T08:02:43.866Z,49.36
2023-04-04T08:05:11.111Z,47.40
2023-04-04T08:07:38.039Z,46.61
2023-04-04T08:10:05.331Z,44.11
2023-04-04T08:12:32.815Z,43.59
2023-04-04T08:14:59.707Z,44.66
2023-04-04T08:17:26.905Z,43.61
2023-04-04T08:19:53.818Z,46.42
2023-04-04T08:22:20.946Z,47.15
2023-04-04T08:24:47.821Z,48.74
2023-04-04T08:27:16.334Z,50.28
2023-04-04T08:29:43.263Z,50.18
2023-04-04T08:32:10.190Z,51.42
2023-04-04T08:34:37.827Z,51.30
2023-04-04T08:37:04.957Z,51.30
2023-04-04T08:39:32.003Z,51.44
2023-04-04T08:42:06.980Z,51.61
2023-04-04T08:44:35.271Z,52.15
2023-04-04T08:47:03.780Z,52.05
2023-04-04T08:49:32.949Z,52.20
2023-04-04T08:52:00.295Z,52.16
2023-04-04T08:54:29.373Z,52.43
2023-04-04T08:56:56.465Z,52.54
2023-04-04T08:59:23.622Z,53.77
2023-04-04T09:01:54.344Z,53.33
2023-04-04T09:04:22.122Z,53.72
2023-04-04T09:06:49.295Z,53.80
2023-04-04T09:09:17.335Z,53.81
2023-04-04T09:11:46.965Z,54.06
2023-04-04T09:14:14.014Z,53.29
2023-04-04T09:16:41.541Z,53.48
2023-04-04T09:19:08.612Z,53.27
2023-04-04T09:21:35.632Z,52.32
2023-04-04T09:24:03.353Z,52.23
2023-04-04T09:26:33.852Z,52.94
2023-04-04T09:29:00.814Z,52.84
2023-04-04T09:31:27.860Z,52.40
2023-04-04T09:33:54.961Z,52.11
2023-04-04T09:36:22.788Z,53.10
2023-04-04T09:38:53.797Z,52.31
2023-04-04T09:41:21.869Z,52.58
2023-04-04T09:43:49.789Z,53.19
2023-04-04T09:46:19.591Z,53.03
2023-04-04T09:48:51.958Z,53.14
2023-04-04T09:51:19.148Z,52.86
2023-04-04T09:53:48.344Z,53.59
2023-04-04T09:56:15.275Z,52.33
2023-04-04T09:58:56.014Z,52.11
2023-04-04T10:01:30.066Z,52.49
2023-04-04T10:03:58.579Z,51.98
2023-04-04T10:06:25.970Z,53.21
2023-04-04T10:08:53.060Z,52.46
2023-04-04T10:11:30.410Z,51.84
2023-04-04T10:13:57.811Z,51.26
2023-04-04T10:16:25.791Z,50.44
2023-04-04T10:18:53.016Z,49.50
2023-04-04T10:21:20.375Z,48.36
2023-04-04T10:23:47.565Z,50.00
2023-04-04T10:26:14.754Z,49.44
2023-04-04T10:28:42.683Z,49.27
2023-04-04T10:31:15.766Z,48.77
2023-04-04T10:33:51.948Z,49.24
2023-04-04T10:36:23.097Z,49.70
2023-04-04T10:38:55.909Z,49.03
2023-04-04T10:41:23.631Z,49.22
2023-04-04T10:43:54.135Z,48.73
2023-04-04T10:46:23.898Z,48.64
2023-04-04T10:48:51.309Z,48.82
2023-04-04T10:51:18.594Z,49.29
2023-04-04T10:53:45.750Z,48.05
2023-04-04T10:56:13.414Z,47.55
2023-04-04T10:58:42.091Z,47.40
2023-04-04T11:01:10.473Z,47.48
2023-04-04T11:03:57.450Z,47.48
2023-04-04T11:06:40.111Z,47.43
2023-04-04T11:09:07.603Z,47.37
2023-04-04T11:11:55.349Z,47.48
2023-04-04T11:14:29.756Z,47.79
2023-04-04T11:16:58.435Z,47.53
2023-04-04T11:19:26.933Z,47.31
2023-04-04T11:21:53.935Z,47.39
2023-04-04T11:24:20.988Z,47.64
2023-04-04T11:26:47.938Z,47.88
2023-04-04T11:29:21.137Z,47.81
2023-04-04T11:31:49.692Z,47.69
2023-04-04T11:34:30.500Z,47.82
2023-04-04T11:36:58.370Z,48.15
2023-04-04T11:39:27.861Z,47.57
2023-04-04T11:41:57.655Z,46.45
2023-04-04T11:44:29.758Z,46.78
2023-04-04T11:46:58.083Z,46.06
2023-04-04T11:49:29.342Z,46.79
2023-04-04T11:51:56.791Z,46.35
2023-04-04T11:54:24.046Z,47.91
2023-04-04T11:56:51.220Z,45.59
2023-04-04T11:59:19.681Z,45.22
2023-04-04T12:01:46.996Z,45.36
2023-04-04T12:04:15.518Z,44.59
2023-04-04T12:06:43.261Z,46.02
2023-04-04T12:09:13.589Z,44.32
2023-04-04T12:11:40.745Z,44.86
2023-04-04T12:14:15.456Z,45.72
2023-04-04T12:16:46.618Z,44.21
2023-04-04T12:19:13.528Z,44.40
2023-04-04T12:21:41.004Z,43.20
2023-04-04T12:24:09.456Z,43.13
2023-04-04T12:26:38.252Z,42.83
2023-04-04T12:29:06.151Z,42.80
2023-04-04T12:31:36.298Z,42.64
2023-04-04T12:34:03.480Z,42.61
2023-04-04T12:36:30.610Z,43.06
2023-04-04T12:39:06.994Z,43.09
2023-04-04T12:41:34.413Z,43.10
2023-04-04T12:44:03.111Z,44.22
2023-04-04T12:46:37.085Z,43.91
2023-04-04T12:49:04.644Z,44.05
2023-04-04T12:51:33.404Z,42.91
2023-04-04T12:54:00.796Z,43.13
2023-04-04T12:56:28.420Z,44.08
2023-04-04T12:59:00.794Z,43.53
2023-04-04T13:01:28.816Z,43.74
2023-04-04T13:03:56.036Z,43.58
2023-04-04T13:06:23.137Z,43.25
2023-04-04T13:08:51.260Z,43.75
2023-04-04T13:11:18.448Z,44.13
2023-04-04T13:16:36.092Z,43.36
2023-04-04T13:19:03.924Z,42.75
2023-04-04T13:21:31.273Z,43.00
2023-04-04T13:23:58.587Z,43.51
2023-04-04T13:26:26.530Z,42.84
2023-04-04T13:28:53.481Z,42.63
2023-04-04T13:31:20.665Z,43.07
2023-04-04T13:33:47.661Z,42.88
2023-04-04T13:36:14.756Z,43.23
2023-04-04T13:38:42.132Z,43.34
2023-04-04T13:41:09.073Z,42.33
2023-04-04T13:43:36.053Z,41.41
2023-04-04T13:46:03.220Z,42.06
2023-04-04T13:48:30.202Z,42.58
2023-04-04T13:50:57.982Z,42.46
2023-04-04T13:53:24.978Z,41.70
2023-04-04T13:56:16.331Z,41.55
2023-04-04T13:58:39.308Z,48.79
2023-04-04T14:01:07.308Z,48.70
2023-04-04T14:03:34.448Z,45.70
2023-04-04T14:06:09.238Z,42.89
2023-04-04T14:08:37.554Z,41.45
2023-04-04T14:11:04.768Z,41.21
2023-04-04T14:13:33.323Z,41.27
2023-04-04T14:16:00.334Z,40.78
2023-04-04T14:18:27.626Z,40.13
2023-04-04T14:20:54.716Z,39.95
2023-04-04T14:23:22.451Z,40.00
2023-04-04T14:25:51.321Z,39.94
2023-04-04T14:28:18.395Z,39.65
2023-04-04T14:30:45.470Z,40.26
2023-04-04T14:33:12.734Z,39.70
2023-04-04T14:35:40.186Z,39.93
2023-04-04T14:38:07.297Z,40.56
2023-04-04T14:40:34.228Z,41.30
2023-04-04T14:43:03.821Z,40.68
2023-04-04T14:45:30.732Z,40.51
2023-04-04T14:47:57.648Z,41.88
2023-04-04T14:50:24.684Z,40.41
2023-04-04T14:52:53.206Z,41.11
2023-04-04T14:55:22.790Z,40.91
2023-04-04T15:00:21.374Z,40.40
2023-04-04T15:02:48.441Z,39.21
2023-04-04T15:05:15.827Z,39.54
2023-04-04T15:07:43.142Z,40.08
2023-04-04T15:10:10.237Z,39.29
2023-04-04T15:12:37.324Z,40.39
2023-04-04T15:15:04.798Z,39.96
2023-04-04T15:17:31.910Z,39.47
2023-04-04T15:20:00.222Z,39.31
2023-04-04T15:22:27.203Z,39.49
2023-04-04T15:24:56.420Z,39.32
2023-04-04T15:27:23.413Z,40.09
2023-04-04T15:29:50.584Z,40.04
2023-04-04T15:32:17.728Z,39.80
2023-04-04T15:34:44.650Z,40.10
2023-04-04T15:37:12.598Z,39.49
2023-04-04T15:39:49.627Z,40.13
2023-04-04T15:42:19.154Z,40.19
2023-04-04T15:44:46.281Z,39.43
2023-04-04T15:47:13.339Z,39.75
2023-04-04T15:49:40.635Z,41.12
2023-04-04T15:52:07.578Z,40.23
2023-04-04T15:54:34.601Z,39.54
2023-04-04T15:57:02.070Z,39.79
2023-04-04T15:59:32.289Z,39.91
2023-04-04T16:01:59.549Z,40.54
2023-04-04T16:04:26.782Z,39.62
2023-04-04T16:06:53.916Z,40.01
2023-04-04T16:09:22.263Z,39.28
2023-04-04T16:11:49.382Z,40.49
2023-04-04T16:14:16.697Z,40.07
2023-04-04T16:16:44.147Z,40.57
2023-04-04T16:19:14.693Z,39.71
2023-04-04T16:21:42.290Z,39.43
2023-04-04T16:24:09.812Z,39.45
2023-04-04T16:26:37.068Z,40.86
2023-04-04T16:29:04.408Z,41.47
2023-04-04T16:31:32.235Z,42.14
2023-04-04T16:34:00.049Z,42.17
2023-04-04T16:36:28.145Z,41.81
2023-04-04T16:38:55.529Z,42.30
2023-04-04T16:41:24.761Z,42.27
2023-04-04T16:43:53.098Z,42.39
2023-04-04T16:46:20.429Z,43.61
2023-04-04T16:48:49.631Z,43.48
2023-04-04T16:51:17.568Z,43.89
2023-04-04T16:53:44.952Z,43.87
2023-04-04T16:56:12.742Z,44.08
2023-04-04T16:58:40.678Z,44.42
2023-04-04T17:01:08.563Z,44.88
2023-04-04T17:03:35.834Z,44.69
2023-04-04T17:06:03.511Z,45.35
2023-04-04T17:08:35.360Z,45.20
2023-04-04T17:11:02.634Z,45.67
2023-04-04T17:13:30.190Z,46.13
2023-04-04T17:15:58.952Z,47.66
2023-04-04T17:18:27.070Z,47.48
2023-04-04T17:20:55.193Z,47.95
2023-04-04T17:23:22.850Z,48.84
2023-04-04T17:25:51.972Z,49.01
2023-04-04T17:28:19.996Z,49.16
2023-04-04T17:30:47.766Z,49.11
2023-04-04T17:33:15.286Z,48.15
2023-04-04T17:35:42.959Z,48.40
2023-04-04T17:38:09.972Z,48.90
2023-04-04T17:40:37.089Z,49.34
2023-04-04T17:43:04.175Z,49.20
2023-04-04T17:45:31.758Z,49.44
2023-04-04T17:47:59.045Z,49.81
2023-04-04T17:50:27.212Z,50.01
2023-04-04T17:52:54.858Z,51.01
2023-04-04T17:55:22.629Z,50.80
2023-04-04T17:57:49.717Z,51.09
2023-04-04T18:00:16.957Z,52.25
2023-04-04T18:02:44.724Z,52.49
2023-04-04T18:05:13.694Z,51.52
2023-04-04T18:07:41.068Z,52.22
2023-04-04T18:10:08.780Z,51.70
2023-04-04T18:12:36.709Z,52.00
2023-04-04T18:15:04.369Z,52.54
2023-04-04T18:17:32.869Z,53.39
2023-04-04T18:20:01.233Z,54.15
2023-04-04T18:22:28.570Z,54.17
2023-04-04T18:24:55.680Z,53.60
2023-04-04T18:27:22.733Z,54.45
2023-04-04T18:29:49.938Z,54.44
2023-04-04T18:32:17.574Z,54.48
2023-04-04T18:34:44.880Z,55.18
2023-04-04T18:37:12.731Z,54.84
2023-04-04T18:39:39.719Z,54.88
2023-04-04T18:42:06.639Z,55.03
2023-04-04T18:44:33.640Z,55.66
2023-04-04T18:47:04.651Z,55.74
2023-04-04T18:49:31.899Z,57.94
2023-04-04T18:51:58.912Z,58.52
2023-04-04T18:54:27.535Z,57.75
2023-04-04T18:56:56.505Z,58.13
2023-04-04T18:59:24.554Z,57.53
2023-04-04T19:01:54.363Z,57.52
2023-04-04T19:04:21.922Z,58.01
2023-04-04T19:06:49.750Z,57.76
2023-04-04T19:09:17.111Z,58.48
2023-04-04T19:11:44.139Z,58.79
2023-04-04T19:14:11.268Z,58.46
2023-04-04T19:16:38.921Z,59.42
2023-04-04T19:19:06.265Z,59.37
2023-04-04T19:21:33.299Z,59.28
2023-04-04T19:24:00.363Z,59.33
2023-04-04T19:26:28.083Z,59.70
2023-04-04T19:28:55.070Z,59.60
2023-04-04T19:31:23.031Z,60.36
2023-04-04T19:33:51.446Z,60.19
2023-04-04T19:36:18.418Z,61.12
2023-04-04T19:38:45.717Z,60.61
2023-04-04T19:41:28.730Z,60.63
2023-04-04T19:43:55.701Z,60.94
2023-04-04T19:46:33.265Z,61.01
2023-04-04T19:49:09.758Z,60.50
2023-04-04T19:51:39.207Z,61.44
2023-04-04T19:54:08.569Z,61.89
2023-04-04T19:56:35.725Z,61.04
2023-04-04T19:59:06.158Z,60.71
2023-04-04T20:01:35.196Z,60.92
2023-04-04T20:04:11.948Z,61.12
2023-04-04T20:06:39.296Z,62.50
2023-04-04T20:09:26.176Z,61.56
2023-04-04T20:11:53.495Z,61.41
2023-04-04T20:14:21.907Z,62.32
2023-04-04T20:16:50.087Z,62.27
2023-04-04T20:19:20.074Z,62.16
2023-04-04T20:21:48.769Z,62.78
2023-04-04T20:24:17.447Z,61.77
2023-04-04T20:26:55.268Z,63.50
2023-04-04T20:29:24.711Z,63.91
2023-04-04T20:31:53.176Z,62.92
2023-04-04T20:34:30.144Z,62.71
2023-04-04T20:36:57.087Z,63.30
2023-04-04T20:39:33.821Z,63.75
2023-04-04T20:42:01.489Z,63.23
2023-04-04T20:44:28.444Z,64.16
2023-04-04T20:46:55.607Z,65.41
2023-04-04T20:49:22.628Z,65.09
2023-04-04T20:51:49.571Z,65.10
2023-04-04T20:54:16.603Z,65.28
2023-04-04T20:56:43.725Z,66.47
2023-04-04T20:59:19.868Z,66.27
2023-04-04T21:01:46.784Z,66.66
2023-04-04T21:04:22.893Z,65.27
2023-04-04T21:06:52.875Z,66.39
2023-04-04T21:09:19.988Z,66.18
2023-04-04T21:11:46.967Z,66.23
2023-04-04T21:14:22.030Z,64.90
2023-04-04T21:16:51.557Z,64.67
2023-04-04T21:19:21.684Z,64.40
2023-04-04T21:21:49.690Z,65.25
2023-04-04T21:24:16.939Z,65.10
2023-04-04T21:26:44.393Z,65.54
2023-04-04T21:29:12.594Z,64.73
2023-04-04T21:31:40.587Z,63.42
2023-04-04T21:34:09.935Z,62.99
2023-04-04T21:36:36.907Z,62.33
2023-04-04T21:39:06.894Z,62.07
2023-04-04T21:41:35.065Z,62.59
2023-04-04T21:44:02.944Z,62.50
2023-04-04T21:46:32.067Z,61.73
2023-04-04T21:48:59.096Z,61.19
2023-04-04T21:51:26.697Z,61.22
2023-04-04T21:53:53.790Z,61.67
2023-04-04T21:56:21.778Z,62.14
2023-04-04T21:58:48.944Z,63.26
2023-04-04T22:01:15.970Z,64.30
2023-04-04T22:03:42.920Z,62.99
2023-04-04T22:06:09.942Z,62.42
2023-04-04T22:08:36.851Z,62.26
2023-04-04T22:11:04.359Z,61.84
2023-04-04T22:13:31.313Z,62.55
2023-04-04T22:15:59.662Z,61.50
2023-04-04T22:18:30.367Z,61.20
2023-04-04T22:21:03.528Z,61.89
2023-04-04T22:23:34.614Z,62.36
2023-04-04T22:26:05.681Z,61.21
2023-04-04T22:28:33.591Z,60.95
2023-04-04T22:31:01.464Z,61.62
2023-04-04T22:33:30.067Z,60.61
2023-04-04T22:35:58.396Z,62.00
2023-04-04T22:38:26.843Z,63.59
2023-04-04T22:40:54.249Z,61.07
2023-04-04T22:43:22.103Z,61.60
2023-04-04T22:45:49.478Z,61.13
2023-04-04T22:48:17.464Z,60.46
2023-04-04T22:50:45.896Z,61.97
2023-04-04T22:53:14.949Z,60.10
2023-04-04T22:55:41.846Z,59.90
2023-04-04T22:58:08.790Z,60.32
2023-04-04T23:00:35.710Z,61.90
2023-04-04T23:03:02.919Z,62.55
2023-04-04T23:05:29.801Z,62.34
2023-04-04T23:08:01.595Z,62.14
2023-04-04T23:10:29.036Z,61.95
2023-04-04T23:12:55.995Z,61.57
2023-04-04T23:15:23.074Z,62.25
2023-04-04T23:17:51.123Z,63.23
2023-04-04T23:20:18.514Z,62.84
2023-04-04T23:22:46.057Z,62.46
2023-04-04T23:25:12.914Z,64.13
2023-04-04T23:27:40.475Z,62.78
2023-04-04T23:30:08.166Z,62.51
2023-04-04T23:32:35.082Z,63.11
2023-04-04T23:35:02.140Z,62.31
2023-04-04T23:37:29.230Z,62.58
2023-04-04T23:39:56.062Z,63.42
2023-04-04T23:42:23.140Z,63.06
2023-04-04T23:44:50.024Z,64.63
2023-04-04T23:47:16.932Z,65.71
2023-04-04T23:49:43.814Z,66.45
2023-04-04T23:52:10.831Z,65.51
2023-04-04T23:54:40.306Z,64.34
2023-04-04T23:57:07.224Z,64.23
2023-04-04T23:59:34.072Z,65.30
